createdAt,value
2022-12-18T00:01:29.603Z,31.40
2022-12-18T00:03:57.173Z,29.70
2022-12-18T00:06:26.320Z,29.40
2022-12-18T00:08:55.746Z,28.83
2022-12-18T00:11:24.836Z,29.88
2022-12-18T00:13:52.056Z,25.60
2022-12-18T00:16:21.653Z,32.03
2022-12-18T00:18:49.343Z,34.93
2022-12-18T00:21:16.476Z,24.42
2022-12-18T00:23:44.817Z,27.65
2022-12-18T00:26:17.776Z,29.73
2022-12-18T00:28:45.448Z,27.90
2022-12-18T00:31:14.815Z,25.33
2022-12-18T00:33:42.290Z,26.40
2022-12-18T00:36:12.688Z,30.27
2022-12-18T00:38:39.715Z,26.42
2022-12-18T00:41:08.608Z,25.00
2022-12-18T00:43:35.610Z,25.00
2022-12-18T00:46:02.580Z,26.25
2022-12-18T00:48:29.586Z,22.98
2022-12-18T00:50:56.168Z,24.45
2022-12-18T00:53:22.835Z,22.98
2022-12-18T00:55:49.316Z,23.03
2022-12-18T00:58:17.458Z,22.75
2022-12-18T01:00:44.402Z,26.55
2022-12-18T01:03:14.355Z,26.73
2022-12-18T01:05:42.566Z,27.90
2022-12-18T01:08:09.020Z,23.57
2022-12-18T01:10:35.492Z,24.45
2022-12-18T01:13:02.030Z,22.67
2022-12-18T01:15:28.497Z,22.10
2022-12-18T01:17:54.973Z,22.60
2022-12-18T01:20:21.740Z,22.70
2022-12-18T01:22:48.339Z,23.27
2022-12-18T01:25:14.825Z,23.30
2022-12-18T01:27:41.294Z,23.63
2022-12-18T01:30:08.488Z,24.63
2022-12-18T01:32:35.007Z,23.03
2022-12-18T01:35:01.532Z,23.58
2022-12-18T01:37:28.044Z,21.30
2022-12-18T01:39:54.547Z,23.52
2022-12-18T01:42:21.921Z,22.00
2022-12-18T01:44:54.323Z,22.03
2022-12-18T01:47:56.396Z,22.23
2022-12-18T01:50:46.389Z,24.08
2022-12-18T01:53:20.065Z,18.58
2022-12-18T01:55:51.309Z,24.00
2022-12-18T01:58:18.948Z,23.33
2022-12-18T02:00:46.139Z,24.48
2022-12-18T02:03:13.139Z,19.92
2022-12-18T02:06:22.943Z,23.50
2022-12-18T02:08:54.286Z,22.45
2022-12-18T02:11:33.833Z,20.93
2022-12-18T02:14:29.205Z,20.65
2022-12-18T02:17:11.416Z,22.80
2022-12-18T02:20:02.496Z,21.02
2022-12-18T02:23:06.624Z,22.92
2022-12-18T02:25:56.319Z,22.93
2022-12-18T02:28:29.417Z,21.52
2022-12-18T02:31:02.067Z,21.67
2022-12-18T02:33:31.605Z,19.05
2022-12-18T02:36:00.472Z,20.25
2022-12-18T02:38:31.821Z,18.13
2022-12-18T02:40:59.641Z,18.25
2022-12-18T02:43:26.263Z,18.17
2022-12-18T02:45:58.872Z,19.60
2022-12-18T02:48:32.954Z,18.17
2022-12-18T02:51:13.781Z,16.67
2022-12-18T02:53:54.458Z,19.05
2022-12-18T02:56:27.367Z,18.38
2022-12-18T02:59:09.055Z,19.00
2022-12-18T03:01:44.128Z,18.45
2022-12-18T03:04:21.480Z,17.63
2022-12-18T03:06:54.320Z,16.45
2022-12-18T03:09:27.715Z,16.55
2022-12-18T03:12:01.166Z,15.00
2022-12-18T03:14:32.128Z,16.40
2022-12-18T03:17:08.640Z,16.07
2022-12-18T03:19:38.965Z,16.77
2022-12-18T03:22:08.639Z,17.17
2022-12-18T03:24:38.032Z,16.88
2022-12-18T03:27:11.192Z,20.55
2022-12-18T03:29:52.979Z,16.80
2022-12-18T03:32:29.937Z,18.27
2022-12-18T03:35:02.691Z,17.17
2022-12-18T03:37:29.301Z,16.25
2022-12-18T03:39:56.006Z,15.63
2022-12-18T03:42:46.971Z,17.23
2022-12-18T03:45:37.444Z,16.63
2022-12-18T03:48:29.945Z,16.02
2022-12-18T03:51:29.367Z,15.48
2022-12-18T03:54:04.156Z,16.73
2022-12-18T03:56:34.531Z,16.73
2022-12-18T03:59:03.780Z,17.50
2022-12-18T04:01:36.427Z,16.15
2022-12-18T04:04:05.387Z,17.50
2022-12-18T04:06:33.531Z,16.88
2022-12-18T04:09:00.495Z,17.87
2022-12-18T04:11:27.124Z,16.33
2022-12-18T04:13:57.802Z,15.65
2022-12-18T04:16:25.694Z,16.50
2022-12-18T04:18:52.311Z,15.52
2022-12-18T04:21:18.820Z,15.07
2022-12-18T04:23:45.273Z,16.15
2022-12-18T04:26:11.839Z,15.55
2022-12-18T04:28:38.346Z,15.63
2022-12-18T04:31:06.384Z,15.48
2022-12-18T04:33:33.381Z,14.93
2022-12-18T04:35:59.919Z,14.88
2022-12-18T04:38:26.542Z,15.35
2022-12-18T04:40:53.096Z,16.30
2022-12-18T04:43:19.758Z,15.73
2022-12-18T04:45:46.442Z,16.37
2022-12-18T04:48:13.109Z,15.55
2022-12-18T04:50:40.091Z,15.95
2022-12-18T04:53:07.715Z,15.68
2022-12-18T04:55:35.113Z,14.63
2022-12-18T04:58:01.776Z,13.00
2022-12-18T05:00:28.256Z,14.70
2022-12-18T05:02:54.882Z,14.40
2022-12-18T05:05:21.485Z,15.07
2022-12-18T05:07:47.971Z,14.30
2022-12-18T05:10:14.681Z,13.30
2022-12-18T05:12:41.221Z,14.18
2022-12-18T05:15:08.292Z,14.57
2022-12-18T05:17:34.927Z,14.27
2022-12-18T05:20:01.461Z,12.98
2022-12-18T05:22:27.994Z,13.73
2022-12-18T05:24:54.624Z,14.20
2022-12-18T05:27:21.168Z,14.02
2022-12-18T05:29:47.964Z,13.10
2022-12-18T05:32:14.493Z,13.52
2022-12-18T05:34:40.988Z,13.33
2022-12-18T05:37:07.462Z,15.70
2022-12-18T05:39:34.606Z,15.02
2022-12-18T05:42:01.079Z,13.32
2022-12-18T05:44:27.787Z,13.70
2022-12-18T05:46:55.147Z,14.10
2022-12-18T05:49:21.671Z,14.23
2022-12-18T05:51:48.201Z,12.45
2022-12-18T05:54:14.698Z,12.40
2022-12-18T05:56:47.005Z,12.93
2022-12-18T05:59:15.195Z,13.50
2022-12-18T06:01:41.831Z,12.27
2022-12-18T06:04:08.659Z,12.77
2022-12-18T06:06:37.969Z,12.90
2022-12-18T06:09:06.162Z,12.75
2022-12-18T06:11:33.223Z,14.03
2022-12-18T06:14:00.701Z,12.77
2022-12-18T06:16:28.825Z,13.45
2022-12-18T06:19:00.118Z,13.70
2022-12-18T06:21:28.107Z,13.73
2022-12-18T06:23:54.696Z,10.90
2022-12-18T06:26:27.660Z,13.57
2022-12-18T06:28:54.741Z,15.43
2022-12-18T06:31:21.250Z,13.18
2022-12-18T06:33:47.820Z,12.40
2022-12-18T06:36:15.027Z,13.03
2022-12-18T06:38:44.104Z,12.93
2022-12-18T06:41:13.291Z,13.65
2022-12-18T06:43:40.266Z,13.35
2022-12-18T06:46:07.813Z,11.85
2022-12-18T06:48:34.699Z,13.10
2022-12-18T06:51:01.621Z,11.48
2022-12-18T06:53:28.653Z,13.95
2022-12-18T06:56:13.106Z,11.88
2022-12-18T06:58:40.306Z,13.40
2022-12-18T07:01:09.320Z,14.20
2022-12-18T07:03:36.270Z,13.95
2022-12-18T07:06:03.656Z,12.75
2022-12-18T07:08:31.151Z,12.30
2022-12-18T07:10:57.857Z,15.10
2022-12-18T07:13:24.502Z,12.90
2022-12-18T07:15:50.959Z,15.45
2022-12-18T07:18:18.534Z,13.13
2022-12-18T07:20:45.399Z,13.60
2022-12-18T07:23:12.877Z,13.60
2022-12-18T07:25:41.640Z,11.03
2022-12-18T07:28:11.699Z,12.95
2022-12-18T07:30:42.386Z,12.65
2022-12-18T07:33:08.855Z,12.00
2022-12-18T07:35:35.453Z,13.43
2022-12-18T07:38:01.990Z,13.33
2022-12-18T07:40:28.725Z,8.98
2022-12-18T07:42:55.425Z,13.82
2022-12-18T07:45:21.915Z,14.18
2022-12-18T07:47:48.545Z,11.82
2022-12-18T07:50:15.103Z,13.60
2022-12-18T07:52:41.547Z,11.48
2022-12-18T07:55:10.939Z,14.65
2022-12-18T07:57:57.619Z,13.57
2022-12-18T08:00:24.045Z,15.27
2022-12-18T08:02:50.621Z,15.17
2022-12-18T08:05:17.424Z,13.80
2022-12-18T08:07:43.917Z,14.63
2022-12-18T08:10:10.698Z,15.98
2022-12-18T08:12:37.327Z,14.25
2022-12-18T08:15:04.229Z,15.67
2022-12-18T08:17:31.582Z,14.57
2022-12-18T08:19:58.152Z,14.38
2022-12-18T08:22:25.001Z,13.20
2022-12-18T08:24:51.556Z,14.27
2022-12-18T08:27:29.513Z,15.37
2022-12-18T08:29:57.035Z,13.88
2022-12-18T08:32:24.459Z,14.07
2022-12-18T08:34:51.355Z,15.05
2022-12-18T08:37:17.915Z,16.88
2022-12-18T08:39:44.490Z,15.47
2022-12-18T08:42:11.236Z,14.77
2022-12-18T08:44:38.144Z,12.35
2022-12-18T08:47:08.246Z,15.70
2022-12-18T08:49:35.946Z,14.93
2022-12-18T08:52:02.829Z,13.13
2022-12-18T08:54:29.831Z,12.82
2022-12-18T08:56:56.417Z,13.75
2022-12-18T08:59:22.882Z,15.68
2022-12-18T09:01:50.227Z,14.25
2022-12-18T09:04:17.100Z,15.13
2022-12-18T09:06:43.719Z,20.52
2022-12-18T09:09:10.990Z,17.67
2022-12-18T09:11:38.140Z,18.02
2022-12-18T09:14:04.962Z,16.73
2022-12-18T09:16:33.032Z,14.37
2022-12-18T09:19:00.692Z,14.50
2022-12-18T09:21:30.308Z,14.98
2022-12-18T09:23:57.311Z,13.07
2022-12-18T09:26:25.041Z,11.88
2022-12-18T09:28:51.640Z,12.13
2022-12-18T09:31:21.011Z,12.63
2022-12-18T09:33:47.678Z,14.50
2022-12-18T09:36:16.691Z,13.57
2022-12-18T09:38:43.688Z,13.35
2022-12-18T09:41:52.904Z,12.73
2022-12-18T09:44:29.707Z,12.10
2022-12-18T09:47:05.647Z,12.02
2022-12-18T09:49:40.561Z,14.18
2022-12-18T09:52:22.640Z,12.25
2022-12-18T09:55:01.265Z,11.47
2022-12-18T09:57:28.007Z,13.02
2022-12-18T10:00:00.020Z,12.45
2022-12-18T10:02:27.830Z,12.55
2022-12-18T10:05:05.493Z,12.10
2022-12-18T10:07:50.798Z,14.27
2022-12-18T10:10:23.129Z,12.68
2022-12-18T10:13:13.870Z,12.70
2022-12-18T10:16:01.393Z,13.02
2022-12-18T10:18:37.013Z,11.82
2022-12-18T10:21:30.724Z,16.10
2022-12-18T10:24:15.516Z,18.80
2022-12-18T10:26:42.787Z,12.38
2022-12-18T10:29:15.102Z,11.63
2022-12-18T10:31:42.082Z,24.52
2022-12-18T10:34:12.727Z,14.87
2022-12-18T10:36:39.641Z,11.63
2022-12-18T10:39:24.473Z,12.85
2022-12-18T10:41:51.114Z,12.15
2022-12-18T10:44:23.720Z,17.85
2022-12-18T10:46:55.056Z,16.83
2022-12-18T10:49:31.126Z,15.20
2022-12-18T10:52:23.940Z,13.07
2022-12-18T10:54:54.412Z,21.05
2022-12-18T10:57:34.631Z,24.33
2022-12-18T11:00:20.224Z,13.17
2022-12-18T11:02:47.051Z,11.63
2022-12-18T11:05:46.176Z,14.55
2022-12-18T11:08:22.114Z,13.27
2022-12-18T11:10:48.752Z,13.70
2022-12-18T11:13:24.283Z,13.40
2022-12-18T11:15:51.741Z,12.32
2022-12-18T11:18:23.333Z,13.10
2022-12-18T11:20:59.734Z,12.50
2022-12-18T11:23:28.167Z,12.68
2022-12-18T11:26:00.423Z,12.13
2022-12-18T11:28:43.311Z,14.07
2022-12-18T11:31:16.138Z,20.73
2022-12-18T11:34:19.650Z,16.42
2022-12-18T11:36:42.381Z,13.77
2022-12-18T11:39:21.243Z,13.63
2022-12-18T11:41:58.755Z,15.80
2022-12-18T11:44:39.357Z,14.82
2022-12-18T11:47:17.993Z,14.38
2022-12-18T11:49:44.681Z,21.00
2022-12-18T11:52:19.730Z,15.17
2022-12-18T11:54:46.327Z,14.43
2022-12-18T11:57:36.552Z,12.57
2022-12-18T12:00:03.016Z,12.32
2022-12-18T12:02:40.265Z,14.25
2022-12-18T12:05:46.428Z,13.57
2022-12-18T12:08:12.944Z,13.02
2022-12-18T12:10:45.538Z,14.68
2022-12-18T12:13:33.687Z,20.50
2022-12-18T12:16:15.216Z,17.98
2022-12-18T12:18:56.652Z,15.83
2022-12-18T12:21:33.601Z,15.65
2022-12-18T12:24:06.175Z,14.40
2022-12-18T12:26:47.997Z,13.65
2022-12-18T12:29:26.826Z,13.73
2022-12-18T12:32:29.603Z,14.63
2022-12-18T12:35:09.383Z,14.20
2022-12-18T12:37:53.500Z,13.98
2022-12-18T12:40:50.314Z,14.13
2022-12-18T12:43:28.025Z,13.13
2022-12-18T12:45:58.537Z,14.50
2022-12-18T12:48:34.419Z,13.85
2022-12-18T12:51:11.410Z,15.00
2022-12-18T12:53:40.419Z,14.52
2022-12-18T12:56:10.920Z,15.30
2022-12-18T12:58:56.750Z,14.77
2022-12-18T13:01:32.734Z,14.05
2022-12-18T13:04:43.893Z,14.35
2022-12-18T13:07:47.879Z,14.13
2022-12-18T13:10:17.816Z,14.10
2022-12-18T13:13:10.420Z,15.30
2022-12-18T13:15:46.263Z,16.58
2022-12-18T13:18:15.500Z,15.98
2022-12-18T13:21:03.786Z,15.45
2022-12-18T13:23:40.750Z,15.00
2022-12-18T13:26:07.647Z,15.90
2022-12-18T13:28:34.597Z,15.20
2022-12-18T13:31:02.748Z,15.07
2022-12-18T13:33:29.605Z,12.95
2022-12-18T13:36:14.738Z,15.27
2022-12-18T13:38:43.112Z,15.17
2022-12-18T13:41:26.259Z,17.65
2022-12-18T13:43:55.072Z,15.75
2022-12-18T13:46:24.514Z,16.27
2022-12-18T13:48:55.882Z,16.00
2022-12-18T13:51:23.947Z,15.63
2022-12-18T13:53:52.028Z,15.05
2022-12-18T13:56:22.738Z,15.60
2022-12-18T13:59:11.711Z,13.98
2022-12-18T14:01:54.132Z,15.15
2022-12-18T14:04:32.160Z,14.10
2022-12-18T14:07:06.742Z,15.30
2022-12-18T14:09:41.829Z,15.07
2022-12-18T14:12:17.980Z,15.32
2022-12-18T14:14:47.839Z,15.57
2022-12-18T14:17:16.975Z,16.10
2022-12-18T14:19:47.126Z,16.00
2022-12-18T14:22:26.583Z,17.17
2022-12-18T14:25:20.331Z,16.77
2022-12-18T14:28:06.957Z,15.50
2022-12-18T14:30:37.703Z,15.53
2022-12-18T14:33:14.852Z,14.70
2022-12-18T14:36:02.396Z,14.88
2022-12-18T14:38:42.005Z,15.68
2022-12-18T14:41:17.239Z,17.27
2022-12-18T14:43:46.641Z,15.10
2022-12-18T14:46:30.027Z,15.55
2022-12-18T14:48:58.093Z,16.48
2022-12-18T14:51:31.264Z,15.68
2022-12-18T14:54:00.896Z,16.63
2022-12-18T14:56:33.487Z,16.43
2022-12-18T14:59:02.570Z,16.40
2022-12-18T15:01:33.410Z,17.08
2022-12-18T15:04:03.077Z,18.17
2022-12-18T15:06:31.515Z,15.27
2022-12-18T15:08:59.856Z,17.00
2022-12-18T15:11:32.991Z,19.55
2022-12-18T15:13:59.594Z,17.42
2022-12-18T15:16:26.371Z,17.63
2022-12-18T15:18:54.266Z,18.30
2022-12-18T15:21:22.015Z,19.50
2022-12-18T15:23:51.713Z,20.98
2022-12-18T15:26:21.552Z,21.10
2022-12-18T15:28:56.321Z,25.65
2022-12-18T15:31:30.231Z,20.65
2022-12-18T15:33:56.824Z,19.97
2022-12-18T15:36:26.182Z,18.77
2022-12-18T15:38:55.167Z,20.02
2022-12-18T15:41:25.649Z,19.73
2022-12-18T15:43:53.775Z,18.23
2022-12-18T15:46:21.836Z,19.00
2022-12-18T15:49:01.698Z,19.90
2022-12-18T15:51:30.759Z,19.30
2022-12-18T15:53:59.679Z,19.88
2022-12-18T15:56:26.629Z,18.88
2022-12-18T15:58:53.161Z,17.43
2022-12-18T16:01:19.842Z,17.65
2022-12-18T16:03:46.644Z,17.77
2022-12-18T16:06:13.736Z,19.40
2022-12-18T16:08:40.361Z,16.48
2022-12-18T16:11:21.764Z,19.13
2022-12-18T16:13:48.449Z,19.90
2022-12-18T16:16:15.260Z,19.50
2022-12-18T16:18:42.084Z,19.55
2022-12-18T16:21:09.621Z,20.48
2022-12-18T16:23:36.237Z,19.23
2022-12-18T16:26:02.834Z,19.17
2022-12-18T16:28:29.365Z,17.52
2022-12-18T16:30:55.874Z,20.50
2022-12-18T16:33:22.435Z,18.52
2022-12-18T16:35:54.844Z,19.20
2022-12-18T16:38:21.385Z,19.45
2022-12-18T16:40:48.209Z,17.48
2022-12-18T16:43:16.526Z,20.20
2022-12-18T16:45:43.865Z,17.45
2022-12-18T16:48:10.400Z,20.87
2022-12-18T16:50:37.121Z,18.70
2022-12-18T16:53:03.826Z,20.60
2022-12-18T16:55:30.707Z,17.63
2022-12-18T16:57:57.761Z,17.63
2022-12-18T17:00:24.381Z,18.30
2022-12-18T17:02:51.320Z,19.20
2022-12-18T17:05:17.992Z,18.63
2022-12-18T17:07:44.596Z,17.80
2022-12-18T17:10:11.213Z,17.83
2022-12-18T17:12:37.700Z,17.83
2022-12-18T17:15:04.613Z,17.50
2022-12-18T17:17:31.153Z,18.75
2022-12-18T17:19:57.755Z,16.83
2022-12-18T17:22:24.260Z,18.30
2022-12-18T17:24:50.860Z,17.63
2022-12-18T17:27:17.408Z,17.58
2022-12-18T17:29:47.904Z,16.55
2022-12-18T17:32:15.978Z,19.45
2022-12-18T17:34:44.887Z,18.33
2022-12-18T17:37:11.416Z,17.00
2022-12-18T17:39:38.326Z,19.77
2022-12-18T17:42:05.226Z,16.50
2022-12-18T17:44:32.528Z,16.90
2022-12-18T17:46:59.189Z,17.92
2022-12-18T17:49:25.934Z,17.43
2022-12-18T17:51:52.549Z,16.80
2022-12-18T17:54:19.754Z,17.70
2022-12-18T17:56:46.357Z,16.67
2022-12-18T17:59:13.146Z,17.92
2022-12-18T18:01:44.397Z,17.37
2022-12-18T18:04:13.292Z,17.13
2022-12-18T18:06:40.127Z,17.30
2022-12-18T18:09:10.015Z,15.52
2022-12-18T18:11:45.914Z,16.17
2022-12-18T18:14:19.165Z,15.90
2022-12-18T18:16:48.202Z,17.23
2022-12-18T18:19:17.622Z,15.60
2022-12-18T18:21:47.715Z,16.48
2022-12-18T18:24:17.980Z,16.55
2022-12-18T18:26:45.021Z,18.60
2022-12-18T18:29:15.935Z,16.10
2022-12-18T18:31:43.058Z,17.98
2022-12-18T18:34:18.727Z,17.33
2022-12-18T18:36:45.406Z,16.00
2022-12-18T18:39:12.970Z,17.17
2022-12-18T18:41:39.548Z,16.77
2022-12-18T18:44:06.622Z,20.00
2022-12-18T18:46:33.449Z,17.17
2022-12-18T18:48:59.897Z,19.92
2022-12-18T18:51:31.445Z,18.80
2022-12-18T18:54:01.554Z,18.33
2022-12-18T18:56:56.183Z,19.33
2022-12-18T18:59:15.038Z,19.08
2022-12-18T19:01:41.664Z,18.77
2022-12-18T19:04:08.877Z,15.83
2022-12-18T19:06:35.517Z,18.67
2022-12-18T19:09:03.899Z,20.40
2022-12-18T19:11:35.927Z,19.05
2022-12-18T19:14:06.116Z,19.00
2022-12-18T19:16:33.496Z,20.03
2022-12-18T19:19:01.898Z,19.92
2022-12-18T19:21:29.358Z,19.73
2022-12-18T19:23:59.317Z,17.92
2022-12-18T19:26:28.214Z,20.33
2022-12-18T19:29:04.732Z,22.70
2022-12-18T19:31:35.653Z,19.60
2022-12-18T19:34:04.233Z,19.20
2022-12-18T19:36:35.092Z,18.75
2022-12-18T19:39:02.093Z,21.63
2022-12-18T19:41:32.964Z,21.20
2022-12-18T19:44:02.252Z,20.10
2022-12-18T19:46:35.574Z,19.58
2022-12-18T19:49:02.711Z,19.30
2022-12-18T19:51:31.364Z,19.67
2022-12-18T19:54:01.214Z,21.67
2022-12-18T19:56:31.572Z,21.92
2022-12-18T19:58:58.489Z,23.88
2022-12-18T20:01:26.298Z,19.75
2022-12-18T20:03:54.462Z,21.55
2022-12-18T20:06:46.706Z,21.17
2022-12-18T20:09:13.491Z,22.10
2022-12-18T20:11:41.952Z,23.67
2022-12-18T20:14:10.106Z,22.92
2022-12-18T20:16:36.729Z,22.33
2022-12-18T20:19:03.768Z,24.60
2022-12-18T20:21:30.469Z,24.08
2022-12-18T20:23:57.017Z,27.25
2022-12-18T20:26:23.913Z,26.02
2022-12-18T20:28:50.468Z,24.05
2022-12-18T20:31:17.242Z,21.67
2022-12-18T20:33:47.632Z,26.70
2022-12-18T20:36:21.134Z,22.75
2022-12-18T20:38:49.964Z,24.02
2022-12-18T20:41:19.174Z,23.10
2022-12-18T20:43:46.200Z,24.17
2022-12-18T20:46:14.961Z,26.67
2022-12-18T20:48:42.349Z,27.48
2022-12-18T20:51:17.387Z,26.13
2022-12-18T20:53:45.611Z,25.75
2022-12-18T20:56:20.850Z,26.67
2022-12-18T20:58:55.138Z,24.80
2022-12-18T21:01:23.082Z,24.65
2022-12-18T21:03:50.723Z,22.98
2022-12-18T21:06:20.183Z,23.48
2022-12-18T21:08:47.302Z,23.93
2022-12-18T21:11:19.976Z,25.85
2022-12-18T21:13:46.506Z,27.25
2022-12-18T21:16:13.067Z,26.17
2022-12-18T21:18:39.594Z,28.05
2022-12-18T21:21:06.173Z,25.07
2022-12-18T21:23:32.800Z,26.33
2022-12-18T21:26:24.461Z,29.77
2022-12-18T21:28:55.835Z,25.02
2022-12-18T21:31:25.291Z,27.98
2022-12-18T21:33:54.659Z,23.40
2022-12-18T21:36:28.157Z,24.50
2022-12-18T21:38:55.639Z,29.52
2022-12-18T21:41:23.329Z,23.50
2022-12-18T21:43:50.237Z,25.80
2022-12-18T21:46:16.786Z,27.47
2022-12-18T21:48:43.461Z,23.45
2022-12-18T21:51:10.379Z,26.65
2022-12-18T21:53:37.032Z,23.05
2022-12-18T21:56:03.682Z,26.98
2022-12-18T21:58:30.586Z,23.40
2022-12-18T22:00:57.115Z,26.77
2022-12-18T22:03:24.253Z,26.55
2022-12-18T22:05:53.975Z,25.25
2022-12-18T22:08:35.765Z,27.00
2022-12-18T22:11:06.395Z,25.10
2022-12-18T22:13:32.986Z,26.38
2022-12-18T22:15:59.477Z,22.50
2022-12-18T22:18:25.992Z,22.98
2022-12-18T22:21:04.997Z,24.27
2022-12-18T22:23:32.005Z,21.43
2022-12-18T22:25:58.530Z,21.83
2022-12-18T22:28:25.098Z,22.38
2022-12-18T22:30:52.699Z,23.23
2022-12-18T22:33:26.001Z,22.35
2022-12-18T22:35:52.484Z,23.43
2022-12-18T22:38:18.979Z,21.52
2022-12-18T22:40:45.749Z,23.23
2022-12-18T22:43:12.500Z,22.90
2022-12-18T22:45:38.986Z,24.38
2022-12-18T22:48:05.947Z,24.33
2022-12-18T22:50:35.332Z,24.00
2022-12-18T22:53:01.863Z,23.55
2022-12-18T22:55:28.350Z,21.20
2022-12-18T22:57:54.898Z,20.08
2022-12-18T23:00:24.588Z,22.83
2022-12-18T23:02:59.473Z,25.00
2022-12-18T23:05:27.651Z,27.42
2022-12-18T23:07:54.177Z,22.85
2022-12-18T23:10:20.623Z,23.05
2022-12-18T23:12:47.270Z,28.87
2022-12-18T23:15:13.996Z,22.48
2022-12-18T23:17:42.685Z,22.90
2022-12-18T23:20:09.764Z,23.80
2022-12-18T23:22:36.394Z,24.55
2022-12-18T23:25:02.981Z,26.70
2022-12-18T23:27:29.544Z,24.95
2022-12-18T23:29:56.014Z,24.33
2022-12-18T23:32:25.062Z,25.08
2022-12-18T23:34:51.544Z,24.80
2022-12-18T23:37:35.302Z,25.53
2022-12-18T23:40:05.154Z,24.70
2022-12-18T23:42:31.705Z,24.60
2022-12-18T23:44:58.259Z,27.23
2022-12-18T23:47:26.245Z,28.73
2022-12-18T23:49:52.851Z,26.07
2022-12-18T23:52:19.437Z,31.63
2022-12-18T23:54:46.103Z,24.10
2022-12-18T23:57:12.678Z,27.33
2022-12-18T23:59:39.165Z,26.85
